WXM80 ListenWXM80 Stop

You find our weather info also at:

UK Metoffice

WeatherCloud

Weather Underground

Northeastern Weather Network

AWEKAS

Citizen Weather Observer Program (CWOP)

HAMweather, WeatherForYou, PWS Weather


Weather Underground History page Text

Daily Summary for August 30, 2017 Units:  English    Metric   Both
« Previous Day
Next Day »
Daily Weekly Monthly Yearly Custom
  High: Low: Average:
Temperature: 80.7 °F 59.8 °F 68.3 °F
Dew Point: 63.1 °F 55.8 °F 59.5 °F
Humidity: 97 % 46 % 76 %
Wind Speed: 9.6 mph 0.0 mph 3.2 mph
Wind Gust: 18.4 mph - -
Wind:- - SSE
Pressure: 29.95 in 29.86 in -
Precipitation: 0.33 in    
Historical Graphs
 
 
Tabular Data for August 30, 2017
Time Temperature Dew Point Pressure Wind Wind Speed Wind Gust Humidity Rainfall Rate (Hourly)
00:02 63.4 °F 62.2 °F 29.93 in East 6.7 mph 10.4 mph 96 % 0.06 in
00:07 63.4 °F 62.2 °F 29.94 in ENE 3.7 mph 8.1 mph 96 % 0.05 in
00:12 63.4 °F 62.2 °F 29.94 in ESE 3.5 mph 6.9 mph 96 % 0.06 in
00:18 63.2 °F 62.0 °F 29.95 in East 2.5 mph 4.6 mph 96 % 0.05 in
00:23 62.8 °F 61.6 °F 29.94 in East 2.8 mph 4.6 mph 96 % 0.05 in
00:28 62.6 °F 61.4 °F 29.94 in East 2.1 mph 3.5 mph 96 % 0.05 in
00:33 62.5 °F 61.3 °F 29.94 in East 1.8 mph 3.5 mph 96 % 0.05 in
00:38 62.5 °F 61.3 °F 29.94 in East 2.3 mph 6.0 mph 96 % 0.09 in
00:43 62.6 °F 61.7 °F 29.94 in ENE 4.0 mph 8.0 mph 97 % 0.13 in
00:48 62.6 °F 61.7 °F 29.94 in ENE 8.1 mph 13.0 mph 97 % 0.16 in
00:53 62.6 °F 61.7 °F 29.94 in North 6.3 mph 11.5 mph 97 % 0.17 in
00:58 62.5 °F 61.6 °F 29.94 in NNE 4.3 mph 13.8 mph 97 % 0.18 in
01:03 62.4 °F 61.2 °F 29.93 in NNE 5.5 mph 11.5 mph 96 % 0.19 in
01:08 62.3 °F 61.1 °F 29.92 in ENE 4.4 mph 15.0 mph 96 % 0.21 in
01:13 62.3 °F 61.1 °F 29.93 in ENE 4.7 mph 11.5 mph 96 % 0.21 in
01:18 62.2 °F 61.0 °F 29.94 in NE 5.1 mph 10.4 mph 96 % 0.22 in
01:23 62.1 °F 60.9 °F 29.93 in ENE 5.7 mph 8.1 mph 96 % 0.23 in
01:28 62.0 °F 60.8 °F 29.92 in NE 4.8 mph 10.4 mph 96 % 0.22 in
01:33 62.0 °F 60.8 °F 29.92 in NNE 3.1 mph 11.5 mph 96 % 0.22 in
01:38 61.9 °F 61.0 °F 29.93 in NE 5.3 mph 11.5 mph 97 % 0.17 in
01:43 61.9 °F 61.0 °F 29.92 in NNE 5.7 mph 9.2 mph 97 % 0.15 in
01:48 61.8 °F 60.9 °F 29.91 in ENE 7.4 mph 12.0 mph 97 % 0.12 in
01:53 61.7 °F 60.5 °F 29.89 in NE 5.0 mph 6.9 mph 96 % 0.12 in
01:54 61.7 °F 60.5 °F 29.89 in NNE 5.0 mph 9.2 mph 96 % 0.11 in
01:59 61.7 °F 60.5 °F 29.92 in North 5.8 mph 16.0 mph 96 % 0.12 in
02:04 61.6 °F 60.4 °F 29.91 in NE 8.9 mph 18.4 mph 96 % 0.12 in
02:09 61.5 °F 60.6 °F 29.90 in North 7.5 mph 15.0 mph 97 % 0.10 in
02:14 61.6 °F 60.7 °F 29.89 in ENE 7.5 mph 11.0 mph 97 % 0.10 in
02:19 61.5 °F 60.6 °F 29.90 in NE 5.5 mph 12.7 mph 97 % 0.09 in
02:24 61.5 °F 60.6 °F 29.90 in NNE 4.6 mph 13.0 mph 97 % 0.08 in
02:29 61.4 °F 60.5 °F 29.90 in NNE 8.5 mph 13.8 mph 97 % 0.08 in
02:34 61.3 °F 60.4 °F 29.89 in East 4.3 mph 9.2 mph 97 % 0.08 in
02:39 61.2 °F 60.3 °F 29.88 in NE 8.0 mph 13.8 mph 97 % 0.07 in
02:44 61.2 °F 60.3 °F 29.87 in East 8.2 mph 16.1 mph 97 % 0.06 in
02:49 61.1 °F 60.0 °F 29.88 in NNE 5.7 mph 17.3 mph 96 % 0.05 in
02:54 61.1 °F 60.0 °F 29.88 in East 9.0 mph 15.0 mph 96 % 0.04 in
02:59 61.1 °F 60.0 °F 29.89 in NNE 7.1 mph 10.4 mph 96 % 0.03 in
03:04 61.1 °F 60.0 °F 29.88 in NE 4.6 mph 8.1 mph 96 % 0.02 in
03:09 61.1 °F 60.0 °F 29.88 in ESE 4.1 mph 10.0 mph 96 % 0.02 in
03:14 61.1 °F 60.0 °F 29.89 in NNE 5.4 mph 11.5 mph 96 % 0.01 in
03:19 61.1 °F 60.0 °F 29.89 in ENE 5.6 mph 11.5 mph 96 % 0.01 in
03:24 61.0 °F 59.9 °F 29.88 in NE 4.2 mph 9.0 mph 96 % 0.01 in
03:29 61.0 °F 59.9 °F 29.88 in NNE 5.7 mph 7.0 mph 96 % 0.00 in
03:34 61.0 °F 59.9 °F 29.88 in ENE 7.1 mph 11.0 mph 96 % 0.00 in
03:40 60.9 °F 59.8 °F 29.88 in ENE 6.4 mph 16.1 mph 96 % 0.00 in
03:45 60.9 °F 59.8 °F 29.88 in NE 4.7 mph 9.2 mph 96 % 0.00 in
03:50 60.8 °F 59.7 °F 29.88 in NNE 5.8 mph 12.7 mph 96 % 0.00 in
03:55 60.8 °F 59.7 °F 29.88 in NE 5.4 mph 8.1 mph 96 % 0.00 in
04:00 60.7 °F 59.6 °F 29.88 in NE 4.4 mph 9.2 mph 96 % 0.00 in
04:05 60.6 °F 59.5 °F 29.88 in North 7.7 mph 12.7 mph 96 % 0.00 in
04:10 60.5 °F 59.4 °F 29.88 in NNE 4.0 mph 10.0 mph 96 % 0.00 in
04:15 60.5 °F 59.4 °F 29.88 in ENE 7.6 mph 12.7 mph 96 % 0.00 in
04:20 60.4 °F 59.3 °F 29.88 in North 7.1 mph 11.5 mph 96 % 0.00 in
04:25 60.4 °F 59.3 °F 29.89 in North 8.1 mph 12.7 mph 96 % 0.00 in
04:30 60.3 °F 58.9 °F 29.89 in NE 9.2 mph 16.1 mph 95 % 0.00 in
04:35 60.4 °F 59.0 °F 29.89 in North 7.0 mph 15.0 mph 95 % 0.00 in
04:40 60.2 °F 58.8 °F 29.89 in NNE 5.7 mph 10.0 mph 95 % 0.00 in
04:45 60.2 °F 58.8 °F 29.88 in North 8.3 mph 13.8 mph 95 % 0.00 in
04:50 60.1 °F 58.7 °F 29.88 in NNE 6.0 mph 12.7 mph 95 % 0.00 in
04:55 60.0 °F 58.6 °F 29.88 in ENE 6.2 mph 10.4 mph 95 % 0.00 in
05:00 59.9 °F 58.5 °F 29.88 in ENE 4.5 mph 9.2 mph 95 % 0.00 in
05:01 59.9 °F 58.5 °F 29.88 in East 5.2 mph 9.2 mph 95 % 0.00 in
05:06 59.9 °F 58.5 °F 29.88 in NNE 5.6 mph 11.5 mph 95 % 0.00 in
05:11 59.8 °F 58.4 °F 29.88 in NNE 6.0 mph 16.1 mph 95 % 0.00 in
05:16 59.8 °F 58.4 °F 29.88 in NNE 6.8 mph 10.4 mph 95 % 0.00 in
05:21 59.8 °F 58.4 °F 29.88 in NNE 6.6 mph 10.4 mph 95 % 0.00 in
05:26 59.9 °F 58.5 °F 29.88 in NNE 5.9 mph 11.5 mph 95 % 0.00 in
05:28 59.9 °F 58.5 °F 29.88 in NNE 5.1 mph 12.7 mph 95 % 0.00 in
05:33 59.9 °F 58.5 °F 29.88 in NNE 7.5 mph 11.5 mph 95 % 0.00 in
05:38 59.9 °F 58.2 °F 29.88 in NE 4.9 mph 8.0 mph 94 % 0.00 in
05:43 59.9 °F 58.2 °F 29.88 in North 7.7 mph 11.5 mph 94 % 0.00 in
05:48 59.9 °F 58.2 °F 29.88 in NNE 4.1 mph 9.0 mph 94 % 0.00 in
05:53 59.9 °F 58.2 °F 29.88 in NNE 4.3 mph 9.2 mph 94 % 0.00 in
05:58 59.9 °F 58.2 °F 29.88 in NNE 5.6 mph 10.4 mph 94 % 0.00 in
06:03 60.0 °F 58.3 °F 29.88 in NNE 7.3 mph 11.5 mph 94 % 0.00 in
06:08 60.1 °F 58.4 °F 29.88 in NNW 4.1 mph 6.9 mph 94 % 0.00 in
06:13 60.2 °F 58.5 °F 29.88 in North 7.2 mph 10.0 mph 94 % 0.00 in
06:18 60.2 °F 58.5 °F 29.88 in NNE 6.6 mph 10.4 mph 94 % 0.00 in
06:23 60.2 °F 58.5 °F 29.88 in NNE 7.4 mph 10.4 mph 94 % 0.00 in
06:28 60.3 °F 58.6 °F 29.88 in NNE 5.5 mph 8.0 mph 94 % 0.00 in
06:33 60.3 °F 58.6 °F 29.88 in NE 4.9 mph 10.4 mph 94 % 0.00 in
06:38 60.3 °F 58.6 °F 29.88 in NNE 6.4 mph 12.7 mph 94 % 0.00 in
06:43 60.4 °F 58.7 °F 29.89 in NNE 6.2 mph 11.5 mph 94 % 0.00 in
06:48 60.5 °F 58.8 °F 29.89 in NNE 5.6 mph 8.1 mph 94 % 0.00 in
06:53 60.5 °F 58.5 °F 29.89 in NNE 8.0 mph 11.5 mph 93 % 0.00 in
06:58 60.6 °F 58.6 °F 29.90 in NNE 9.6 mph 11.5 mph 93 % 0.00 in
07:03 60.7 °F 58.7 °F 29.90 in North 8.5 mph 11.5 mph 93 % 0.00 in
07:08 60.7 °F 58.7 °F 29.90 in North 5.8 mph 6.9 mph 93 % 0.00 in
07:14 60.7 °F 58.7 °F 29.90 in NNE 6.7 mph 10.4 mph 93 % 0.00 in
07:19 60.8 °F 58.8 °F 29.90 in NNE 6.8 mph 12.0 mph 93 % 0.00 in
07:24 60.8 °F 58.8 °F 29.90 in North 5.5 mph 7.0 mph 93 % 0.00 in
07:29 60.9 °F 58.9 °F 29.90 in North 4.5 mph 9.2 mph 93 % 0.00 in
07:34 60.9 °F 58.9 °F 29.90 in NNE 4.7 mph 8.1 mph 93 % 0.00 in
07:39 61.0 °F 59.0 °F 29.91 in NE 6.1 mph 11.5 mph 93 % 0.00 in
07:44 61.0 °F 59.0 °F 29.91 in NNE 5.4 mph 9.2 mph 93 % 0.00 in
07:49 61.1 °F 59.1 °F 29.91 in North 7.2 mph 11.5 mph 93 % 0.00 in
07:54 61.1 °F 58.8 °F 29.91 in North 3.8 mph 11.5 mph 92 % 0.00 in
07:59 61.2 °F 59.2 °F 29.91 in North 7.0 mph 11.5 mph 93 % 0.00 in
08:04 61.2 °F 58.9 °F 29.91 in NE 4.6 mph 10.4 mph 92 % 0.00 in
08:09 61.3 °F 59.0 °F 29.91 in North 7.4 mph 11.5 mph 92 % 0.00 in
08:14 61.4 °F 59.1 °F 29.91 in North 4.2 mph 10.4 mph 92 % 0.00 in
08:19 61.7 °F 59.4 °F 29.91 in North 6.8 mph 10.4 mph 92 % 0.00 in
08:24 61.9 °F 59.2 °F 29.91 in NNW 4.0 mph 8.1 mph 91 % 0.00 in
08:29 62.1 °F 59.4 °F 29.91 in NNE 5.4 mph 9.2 mph 91 % 0.00 in
08:34 62.3 °F 59.6 °F 29.91 in NNE 6.6 mph 10.0 mph 91 % 0.00 in
08:39 62.5 °F 59.5 °F 29.91 in East 6.7 mph 11.5 mph 90 % 0.00 in
08:44 62.6 °F 59.6 °F 29.91 in NNE 7.2 mph 11.5 mph 90 % 0.00 in
08:49 62.9 °F 59.9 °F 29.91 in NNE 7.0 mph 10.4 mph 90 % 0.00 in
08:54 63.0 °F 59.7 °F 29.91 in North 8.2 mph 12.7 mph 89 % 0.00 in
08:59 63.0 °F 59.4 °F 29.91 in North 6.5 mph 11.5 mph 88 % 0.00 in
09:05 63.1 °F 59.5 °F 29.91 in NE 4.1 mph 5.8 mph 88 % 0.00 in
09:10 63.2 °F 59.6 °F 29.90 in North 5.5 mph 8.1 mph 88 % 0.00 in
09:15 63.2 °F 59.3 °F 29.90 in NE 6.5 mph 11.5 mph 87 % 0.00 in
09:20 63.3 °F 59.4 °F 29.91 in NNE 4.1 mph 9.2 mph 87 % 0.00 in
09:25 63.4 °F 59.5 °F 29.91 in NNW 5.5 mph 7.0 mph 87 % 0.00 in
09:30 63.6 °F 59.7 °F 29.91 in NNW 5.8 mph 6.9 mph 87 % 0.00 in
09:35 63.8 °F 59.5 °F 29.91 in NNE 4.9 mph 8.1 mph 86 % 0.00 in
09:40 63.9 °F 59.6 °F 29.91 in NNW 5.7 mph 11.5 mph 86 % 0.00 in
09:45 64.1 °F 59.5 °F 29.91 in North 5.8 mph 12.0 mph 85 % 0.00 in
09:50 64.6 °F 59.3 °F 29.91 in NNE 4.7 mph 9.2 mph 83 % 0.00 in
09:55 65.3 °F 60.0 °F 29.91 in North 5.4 mph 8.1 mph 83 % 0.00 in
10:00 65.9 °F 60.2 °F 29.91 in NNE 4.2 mph 7.0 mph 82 % 0.00 in
10:05 66.4 °F 59.7 °F 29.91 in North 3.7 mph 6.0 mph 79 % 0.00 in
10:11 66.7 °F 60.0 °F 29.91 in NNE 5.0 mph 8.0 mph 79 % 0.00 in
10:16 66.8 °F 59.7 °F 29.91 in NNE 2.0 mph 9.0 mph 78 % 0.00 in
10:21 66.8 °F 59.0 °F 29.91 in NNE 5.0 mph 12.0 mph 76 % 0.00 in
10:26 66.7 °F 58.5 °F 29.91 in NNE 6.0 mph 12.0 mph 75 % 0.00 in
10:31 66.6 °F 58.8 °F 29.90 in North 2.0 mph 7.0 mph 76 % 0.00 in
10:36 66.7 °F 58.9 °F 29.90 in North 7.0 mph 13.0 mph 76 % 0.00 in
10:41 67.0 °F 59.2 °F 29.90 in NNE 6.0 mph 12.0 mph 76 % 0.00 in
10:46 67.2 °F 59.0 °F 29.91 in NNE 3.0 mph 12.0 mph 75 % 0.00 in
10:51 67.4 °F 59.9 °F 29.91 in NNE 3.0 mph 8.0 mph 77 % 0.00 in
10:56 67.8 °F 59.2 °F 29.91 in North 3.0 mph 12.0 mph 74 % 0.00 in
11:01 68.4 °F 59.8 °F 29.91 in NNE 4.0 mph 9.2 mph 74 % 0.00 in
11:06 69.2 °F 61.3 °F 29.91 in North 2.4 mph 4.0 mph 76 % 0.00 in
11:10 69.9 °F 60.8 °F 29.91 in NNE 4.8 mph 6.9 mph 73 % 0.00 in
11:15 70.9 °F 61.4 °F 29.91 in North 2.2 mph 4.6 mph 72 % 0.00 in
11:20 71.8 °F 61.5 °F 29.91 in NNW 1.7 mph 4.6 mph 70 % 0.00 in
11:25 72.5 °F 61.3 °F 29.91 in NNE 2.6 mph 3.5 mph 68 % 0.00 in
11:30 73.2 °F 61.6 °F 29.91 in NNW 1.2 mph 4.0 mph 67 % 0.00 in
11:35 73.8 °F 61.7 °F 29.91 in NNE 1.0 mph 2.3 mph 66 % 0.00 in
11:40 74.4 °F 61.0 °F 29.91 in NNE 2.9 mph 5.8 mph 63 % 0.00 in
11:45 74.8 °F 62.2 °F 29.91 in NNW 0.9 mph 2.3 mph 65 % 0.00 in
11:50 75.3 °F 62.3 °F 29.91 in North 0.9 mph 2.3 mph 64 % 0.00 in
11:55 75.8 °F 61.8 °F 29.91 in NNE 1.2 mph 3.5 mph 62 % 0.00 in
12:00 76.2 °F 62.7 °F 29.91 in WNW 0.2 mph 1.2 mph 63 % 0.00 in
12:05 76.5 °F 62.0 °F 29.91 in NW 0.1 mph 1.2 mph 61 % 0.00 in
12:10 76.6 °F 61.2 °F 29.91 in WNW 2.2 mph 5.8 mph 59 % 0.00 in
12:15 76.8 °F 61.9 °F 29.91 in NNE 1.0 mph 3.5 mph 60 % 0.00 in
12:20 76.8 °F 62.3 °F 29.91 in NNE 0.3 mph 3.5 mph 61 % 0.00 in
12:26 77.1 °F 61.2 °F 29.90 in North 2.0 mph 5.0 mph 58 % 0.00 in
12:30 77.3 °F 61.4 °F 29.90 in NNE 0.2 mph 3.5 mph 58 % 0.00 in
12:36 77.6 °F 63.1 °F 29.90 in Calm   1.0 mph 61 % 0.00 in
12:41 78.1 °F 63.1 °F 29.90 in NNE 0.3 mph 3.5 mph 60 % 0.00 in
12:46 78.2 °F 62.2 °F 29.90 in North 1.0 mph 6.0 mph 58 % 0.00 in
12:51 78.4 °F 62.4 °F 29.90 in NNE 2.2 mph 3.5 mph 58 % 0.00 in
12:56 78.5 °F 61.0 °F 29.90 in NNE 1.5 mph 4.6 mph 55 % 0.00 in
13:01 78.5 °F 60.5 °F 29.90 in NNE 3.7 mph 5.8 mph 54 % 0.00 in
13:06 78.6 °F 61.1 °F 29.90 in North 2.2 mph 4.6 mph 55 % 0.00 in
13:11 78.8 °F 60.2 °F 29.90 in NNW 0.6 mph 2.3 mph 53 % 0.00 in
13:16 78.8 °F 59.1 °F 29.90 in WNW 2.3 mph 3.5 mph 51 % 0.00 in
13:21 79.0 °F 58.8 °F 29.90 in WNW 1.9 mph 6.0 mph 50 % 0.00 in
13:26 79.1 °F 59.4 °F 29.89 in WNW 1.3 mph 6.0 mph 51 % 0.00 in
13:31 79.1 °F 62.1 °F 29.89 in NW 0.8 mph 3.5 mph 56 % 0.00 in
13:36 79.2 °F 60.6 °F 29.90 in NNW 1.2 mph 3.5 mph 53 % 0.00 in
13:41 79.2 °F 59.5 °F 29.89 in WSW 0.2 mph 3.5 mph 51 % 0.00 in
13:46 79.3 °F 59.6 °F 29.89 in SW 2.8 mph 4.6 mph 51 % 0.00 in
13:51 79.4 °F 61.3 °F 29.89 in WNW 1.9 mph 3.5 mph 54 % 0.00 in
13:56 79.7 °F 60.5 °F 29.88 in NNW 2.0 mph 3.5 mph 52 % 0.00 in
14:01 79.7 °F 59.4 °F 29.88 in WNW 0.2 mph 4.6 mph 50 % 0.00 in
14:06 80.0 °F 62.4 °F 29.88 in WSW 0.2 mph 1.0 mph 55 % 0.00 in
14:11 80.2 °F 61.0 °F 29.88 in WSW 0.6 mph 3.5 mph 52 % 0.00 in
14:21 80.4 °F 57.7 °F 29.88 in West 0.1 mph 1.2 mph 46 % 0.00 in
14:26 80.3 °F 60.5 °F 29.88 in NNE 2.0 mph 4.0 mph 51 % 0.00 in
14:31 80.0 °F 60.2 °F 29.87 in West 1.2 mph 3.5 mph 51 % 0.00 in
14:36 80.1 °F 60.3 °F 29.88 in WNW 3.0 mph 4.0 mph 51 % 0.00 in
14:41 80.2 °F 61.5 °F 29.88 in West 1.7 mph 4.6 mph 53 % 0.00 in
14:47 80.3 °F 60.5 °F 29.87 in WSW 3.1 mph 4.6 mph 51 % 0.00 in
14:52 80.3 °F 60.0 °F 29.88 in SW 2.9 mph 6.0 mph 50 % 0.00 in
14:57 80.4 °F 59.5 °F 29.88 in SW 2.0 mph 4.6 mph 49 % 0.00 in
15:02 80.5 °F 60.1 °F 29.88 in WSW 3.8 mph 5.8 mph 50 % 0.00 in
15:07 80.5 °F 59.6 °F 29.88 in West 1.4 mph 2.3 mph 49 % 0.00 in
15:12 80.6 °F 61.3 °F 29.88 in WNW 3.2 mph 7.0 mph 52 % 0.00 in
15:17 80.6 °F 60.2 °F 29.88 in WSW 4.0 mph 5.8 mph 50 % 0.00 in
15:22 80.6 °F 58.5 °F 29.88 in WSW 4.6 mph 7.0 mph 47 % 0.00 in
15:25 80.5 °F 59.6 °F 29.87 in West 4.4 mph 6.9 mph 49 % 0.00 in
15:30 80.5 °F 59.6 °F 29.87 in WSW 0.5 mph 3.5 mph 49 % 0.00 in
15:35 80.6 °F 59.7 °F 29.87 in WSW 5.0 mph 6.9 mph 49 % 0.00 in
15:40 80.6 °F 59.1 °F 29.87 in WSW 1.9 mph 6.9 mph 48 % 0.00 in
15:45 80.6 °F 59.7 °F 29.86 in West 1.8 mph 3.5 mph 49 % 0.00 in
15:50 80.7 °F 59.2 °F 29.86 in West 3.1 mph 8.1 mph 48 % 0.00 in
15:55 80.5 °F 59.0 °F 29.87 in South 3.6 mph 4.6 mph 48 % 0.00 in
16:00 80.4 °F 58.9 °F 29.87 in WNW 1.5 mph 5.0 mph 48 % 0.00 in
16:05 80.3 °F 59.4 °F 29.86 in SW 1.9 mph 5.8 mph 49 % 0.00 in
16:10 80.3 °F 60.0 °F 29.86 in SSW 2.8 mph 4.6 mph 50 % 0.00 in
16:15 80.3 °F 59.4 °F 29.86 in West 3.2 mph 3.5 mph 49 % 0.00 in
16:20 80.4 °F 59.5 °F 29.86 in West 1.0 mph 3.0 mph 49 % 0.00 in
16:25 80.5 °F 59.6 °F 29.86 in SW 1.8 mph 3.5 mph 49 % 0.00 in
16:30 80.4 °F 58.9 °F 29.86 in WNW 0.9 mph 6.9 mph 48 % 0.00 in
16:35 80.3 °F 59.4 °F 29.86 in SW 2.6 mph 3.5 mph 49 % 0.00 in
16:41 80.3 °F 58.8 °F 29.86 in WSW 3.0 mph 8.0 mph 48 % 0.00 in
16:46 80.1 °F 59.8 °F 29.86 in Calm   3.0 mph 50 % 0.00 in
16:51 80.0 °F 59.7 °F 29.86 in WSW 2.0 mph 5.0 mph 50 % 0.00 in
16:56 79.8 °F 58.4 °F 29.86 in WSW 3.0 mph 5.0 mph 48 % 0.00 in
17:01 79.7 °F 58.3 °F 29.86 in SW 2.4 mph 3.5 mph 48 % 0.00 in
17:06 79.6 °F 57.6 °F 29.86 in WNW 2.8 mph 5.0 mph 47 % 0.00 in
17:11 79.4 °F 57.4 °F 29.86 in SW 3.3 mph 9.2 mph 47 % 0.00 in
17:16 79.3 °F 56.7 °F 29.86 in SW 4.0 mph 8.1 mph 46 % 0.00 in
17:21 79.1 °F 57.1 °F 29.86 in WSW 2.9 mph 6.9 mph 47 % 0.00 in
17:26 78.9 °F 56.4 °F 29.86 in SW 2.6 mph 6.9 mph 46 % 0.00 in
17:31 78.8 °F 56.9 °F 29.86 in WSW 2.4 mph 4.6 mph 47 % 0.00 in
17:36 78.6 °F 56.7 °F 29.86 in West 2.6 mph 3.5 mph 47 % 0.00 in
17:41 78.5 °F 57.7 °F 29.86 in SSW 1.9 mph 5.8 mph 49 % 0.00 in
17:46 78.3 °F 55.8 °F 29.86 in SW 2.2 mph 4.6 mph 46 % 0.00 in
17:51 78.1 °F 56.8 °F 29.86 in SW 1.0 mph 3.5 mph 48 % 0.00 in
17:56 78.0 °F 56.1 °F 29.86 in WSW 0.1 mph 2.3 mph 47 % 0.00 in
18:01 77.8 °F 56.0 °F 29.86 in WSW 1.0 mph 2.3 mph 47 % 0.00 in
18:06 77.6 °F 55.8 °F 29.86 in WSW 0.3 mph 1.2 mph 47 % 0.00 in
18:16 77.1 °F 56.5 °F 29.86 in WSW 0.9 mph 2.3 mph 49 % 0.00 in
18:21 76.9 °F 56.8 °F 29.86 in WSW 0.5 mph 2.0 mph 50 % 0.00 in
18:26 76.6 °F 57.1 °F 29.86 in Calm   1.2 mph 51 % 0.00 in
18:31 76.3 °F 57.9 °F 29.86 in Calm   1.2 mph 53 % 0.00 in
18:36 76.0 °F 58.2 °F 29.86 in Calm     54 % 0.00 in
18:41 75.7 °F 58.9 °F 29.86 in Calm     56 % 0.00 in
18:46 75.4 °F 58.6 °F 29.86 in Calm     56 % 0.00 in
18:51 75.1 °F 59.3 °F 29.86 in Calm     58 % 0.00 in
18:56 74.7 °F 59.9 °F 29.86 in Calm     60 % 0.00 in
19:01 74.3 °F 60.4 °F 29.86 in Calm     62 % 0.00 in
19:06 73.9 °F 60.5 °F 29.86 in Calm     63 % 0.00 in
19:11 73.5 °F 60.6 °F 29.86 in Calm     64 % 0.00 in
19:21 72.6 °F 60.6 °F 29.86 in Calm     66 % 0.00 in
19:26 72.1 °F 60.1 °F 29.86 in Calm     66 % 0.00 in
19:31 71.8 °F 60.2 °F 29.86 in Calm     67 % 0.00 in
19:36 71.4 °F 60.3 °F 29.86 in Calm     68 % 0.00 in
19:41 71.0 °F 59.5 °F 29.86 in Calm     67 % 0.00 in
19:46 70.6 °F 58.7 °F 29.86 in WSW 0.1 mph   66 % 0.00 in
19:51 70.3 °F 58.4 °F 29.86 in Calm     66 % 0.00 in
19:56 70.0 °F 58.5 °F 29.86 in Calm     67 % 0.00 in
20:02 69.7 °F 58.3 °F 29.86 in Calm     67 % 0.00 in
20:07 69.4 °F 58.8 °F 29.86 in Calm     69 % 0.00 in
20:12 69.0 °F 58.8 °F 29.86 in Calm     70 % 0.00 in
20:17 68.7 °F 58.9 °F 29.86 in Calm     71 % 0.00 in
20:22 68.5 °F 58.7 °F 29.86 in Calm     71 % 0.00 in
20:27 68.2 °F 58.8 °F 29.86 in Calm     72 % 0.00 in
20:32 67.9 °F 58.9 °F 29.86 in WSW 0.1 mph 1.2 mph 73 % 0.00 in
20:37 67.7 °F 58.7 °F 29.87 in WSW 0.1 mph 1.2 mph 73 % 0.00 in
20:42 67.5 °F 58.2 °F 29.87 in Calm     72 % 0.00 in
20:47 67.4 °F 58.4 °F 29.87 in Calm     73 % 0.00 in
20:52 67.1 °F 58.5 °F 29.87 in Calm     74 % 0.00 in
20:57 66.9 °F 58.3 °F 29.87 in Calm     74 % 0.00 in
21:02 66.7 °F 58.5 °F 29.87 in Calm     75 % 0.00 in
21:07 66.5 °F 58.3 °F 29.87 in Calm   1.0 mph 75 % 0.00 in
21:12 66.3 °F 58.5 °F 29.87 in Calm   1.2 mph 76 % 0.00 in
21:17 66.1 °F 58.3 °F 29.87 in WSW 0.1 mph 1.2 mph 76 % 0.00 in
21:22 66.0 °F 58.6 °F 29.87 in Calm     77 % 0.00 in
21:27 65.8 °F 58.4 °F 29.87 in WSW 0.1 mph 1.2 mph 77 % 0.00 in
21:32 65.7 °F 58.7 °F 29.87 in WSW 0.1 mph 1.2 mph 78 % 0.00 in
21:37 65.6 °F 58.6 °F 29.87 in WSW 0.2 mph 1.2 mph 78 % 0.00 in
21:42 65.5 °F 58.8 °F 29.87 in Calm     79 % 0.00 in
21:47 65.4 °F 59.1 °F 29.88 in Calm   1.2 mph 80 % 0.00 in
21:52 65.3 °F 59.0 °F 29.88 in Calm     80 % 0.00 in
21:57 65.1 °F 58.8 °F 29.88 in WSW 0.3 mph 1.2 mph 80 % 0.00 in
22:02 65.1 °F 59.1 °F 29.87 in WSW 1.6 mph 4.6 mph 81 % 0.00 in
22:08 65.0 °F 59.0 °F 29.88 in WSW 0.3 mph 2.3 mph 81 % 0.00 in
22:13 64.9 °F 58.9 °F 29.88 in WSW 0.1 mph 1.2 mph 81 % 0.00 in
22:18 64.8 °F 58.8 °F 29.88 in WSW 0.1 mph 1.2 mph 81 % 0.00 in
22:23 64.8 °F 58.8 °F 29.88 in Calm   1.2 mph 81 % 0.00 in
22:28 64.7 °F 58.7 °F 29.88 in WSW 1.2 mph 3.5 mph 81 % 0.00 in
22:33 64.7 °F 58.7 °F 29.87 in WSW 0.1 mph 1.2 mph 81 % 0.00 in
22:38 64.7 °F 59.1 °F 29.87 in SW 0.5 mph 3.5 mph 82 % 0.00 in
22:43 64.7 °F 59.1 °F 29.87 in SW 0.5 mph 2.3 mph 82 % 0.00 in
22:48 64.7 °F 59.1 °F 29.87 in SW 0.7 mph 2.3 mph 82 % 0.00 in
22:53 64.7 °F 59.1 °F 29.87 in SW 0.2 mph 1.2 mph 82 % 0.00 in
22:58 64.7 °F 59.1 °F 29.87 in SW 0.7 mph 3.0 mph 82 % 0.00 in
23:03 64.7 °F 59.1 °F 29.87 in WSW 0.4 mph 2.3 mph 82 % 0.00 in
23:08 64.8 °F 59.2 °F 29.87 in Calm     82 % 0.00 in
23:14 64.9 °F 59.3 °F 29.87 in Calm     82 % 0.00 in
23:19 64.9 °F 58.9 °F 29.87 in Calm   1.2 mph 81 % 0.00 in
23:21 64.9 °F 58.9 °F 29.87 in Calm     81 % 0.00 in
23:26 64.9 °F 58.9 °F 29.87 in Calm   1.2 mph 81 % 0.00 in
23:32 64.9 °F 58.9 °F 29.87 in SW 0.1 mph 1.2 mph 81 % 0.00 in
23:34 65.0 °F 59.0 °F 29.87 in West 0.9 mph 2.3 mph 81 % 0.00 in
23:39 65.0 °F 59.0 °F 29.87 in Calm     81 % 0.00 in
23:44 65.0 °F 59.0 °F 29.87 in Calm     81 % 0.00 in
23:49 65.0 °F 59.0 °F 29.87 in WSW 0.1 mph 1.2 mph 81 % 0.00 in
23:54 65.0 °F 59.0 °F 29.86 in SW 0.1 mph 1.2 mph 81 % 0.00 in
23:59 65.1 °F 59.1 °F 29.86 in SW 1.2 mph 3.5 mph 81 % 0.00 in
Crab Meadow Weather
Compliments of Weather Underground - 3 mb

Script developed by  Jim McMurry - jmcmurry@mwt.net Adapted for the template by  Wim van der Kuil - Leuven-Template.eu

Recycling: To produce each week's Sunday newspapers, 500,000 trees must be cut down.